Time;durP1;ratioP1;P1;durP2;ratioP2;P2;SDS_P1;SDS_P2;PMS_P1;PMS_P2;Temp;Humidity;BMP_temperature;BMP_pressure;BME280_temperature;BME280_humidity;BME280_pressure;Samples;Min_cycle;Max_cycle;Signal;HPM_P1;HPM_P2
2021/12/17 00:05:13;;;;;;;27.27;18.15;;;4.40;99.90;;;;;;4997458;28;20243;-79
2021/12/17 00:07:40;;;;;;;30.20;18.83;;;4.50;99.90;;;;;;4999168;28;20724;-79
2021/12/17 00:10:11;;;;;;;25.80;17.25;;;4.40;99.90;;;;;;4998477;28;20565;-79
2021/12/17 00:12:38;;;;;;;30.27;19.02;;;4.30;99.90;;;;;;4997945;28;20244;-80
2021/12/17 00:15:10;;;;;;;26.88;18.80;;;4.30;99.90;;;;;;4998724;28;20216;-79
2021/12/17 00:17:48;;;;;;;28.10;18.00;;;4.30;99.90;;;;;;4998739;28;20306;-79
2021/12/17 00:40:28;;;;;;;27.90;17.33;;;4.40;99.90;;;;;;5027799;28;20235;-80
2021/12/17 00:48:50;;;;;;;29.13;17.58;;;4.60;99.90;;;;;;5023487;28;20199;-80
2021/12/17 00:54:20;;;;;;;25.77;18.95;;;4.70;99.90;;;;;;5032766;28;20199;-79
2021/12/17 00:56:47;;;;;;;24.95;16.80;;;4.70;99.90;;;;;;5019153;28;20180;-78
2021/12/17 00:59:31;;;;;;;22.85;16.90;;;4.70;99.90;;;;;;5015543;28;20277;-80
2021/12/17 01:02:02;;;;;;;24.33;15.52;;;4.80;99.90;;;;;;5031206;28;20227;-80
2021/12/17 01:04:35;;;;;;;28.02;16.17;;;4.80;99.90;;;;;;5033209;28;20202;-79
2021/12/17 01:07:03;;;;;;;22.95;16.10;;;4.80;99.90;;;;;;5014190;28;20208;-79
2021/12/17 01:09:35;;;;;;;22.20;15.55;;;4.80;99.70;;;;;;5013213;28;20235;-79
2021/12/17 01:14:54;;;;;;;23.70;15.43;;;4.80;99.00;;;;;;5006439;28;20181;-78
2021/12/17 01:17:23;;;;;;;22.20;15.02;;;4.80;99.00;;;;;;5015601;28;20196;-80
2021/12/17 01:20:20;;;;;;;24.45;15.68;;;4.90;98.80;;;;;;5016589;28;20287;-79
2021/12/17 01:23:10;;;;;;;26.00;16.60;;;4.90;98.30;;;;;;5036413;28;20207;-78
2021/12/17 01:35:20;;;;;;;23.27;14.88;;;4.90;98.10;;;;;;5031559;28;20282;-79
2021/12/17 01:43:22;;;;;;;20.13;14.75;;;4.90;97.40;;;;;;4941371;28;20302;-78
2021/12/17 01:46:05;;;;;;;20.58;13.82;;;4.90;97.00;;;;;;5004787;28;20208;-79
2021/12/17 01:49:03;;;;;;;23.23;14.23;;;4.90;96.90;;;;;;5005560;28;20233;-80
2021/12/17 01:59:22;;;;;;;23.35;14.80;;;5.10;96.30;;;;;;5033310;28;20211;-79
2021/12/17 02:01:58;;;;;;;21.10;14.15;;;5.20;96.20;;;;;;5033234;28;20199;-78
2021/12/17 02:04:27;;;;;;;27.30;15.73;;;5.20;96.30;;;;;;5017651;28;20207;-80
2021/12/17 02:06:55;;;;;;;23.27;15.30;;;5.30;96.50;;;;;;5019575;28;20623;-79
2021/12/17 02:10:05;;;;;;;20.83;15.35;;;5.30;96.40;;;;;;5022037;28;20257;-77
2021/12/17 02:13:08;;;;;;;22.55;15.98;;;5.30;96.80;;;;;;5032463;28;20287;-79
2021/12/17 02:30:04;;;;;;;23.70;15.02;;;5.30;98.80;;;;;;5025733;28;20206;-80
2021/12/17 02:32:50;;;;;;;21.38;15.20;;;5.30;99.10;;;;;;5027361;28;20224;-79
2021/12/17 02:35:31;;;;;;;26.08;16.58;;;5.40;99.00;;;;;;5013537;28;20243;-79
2021/12/17 02:38:06;;;;;;;20.65;15.30;;;5.30;98.80;;;;;;5011575;28;20249;-80
2021/12/17 02:46:19;;;;;;;25.05;15.35;;;5.30;99.30;;;;;;5013132;28;20249;-78
2021/12/17 02:48:50;;;;;;;19.75;14.23;;;5.40;99.30;;;;;;5007179;28;20407;-79
2021/12/17 02:51:31;;;;;;;23.92;15.27;;;5.40;98.80;;;;;;5001712;28;20617;-79
2021/12/17 02:54:46;;;;;;;22.08;15.38;;;5.50;99.20;;;;;;5011964;28;20239;-79
2021/12/17 02:57:47;;;;;;;18.77;14.30;;;5.60;99.00;;;;;;5016249;28;20219;-79
2021/12/17 03:00:23;;;;;;;25.48;14.45;;;5.60;98.90;;;;;;5016277;28;20188;-78
2021/12/17 03:05:41;;;;;;;25.65;15.68;;;5.70;97.70;;;;;;5014389;28;20299;-78
2021/12/17 03:08:18;;;;;;;21.05;14.88;;;5.60;97.20;;;;;;5014458;28;20199;-79
2021/12/17 03:18:04;;;;;;;21.88;14.40;;;5.60;97.20;;;;;;4990755;28;20273;-79
2021/12/17 03:23:39;;;;;;;23.75;15.38;;;5.70;97.20;;;;;;5005839;28;20287;-78
2021/12/17 03:27:04;;;;;;;21.08;14.02;;;5.70;97.30;;;;;;5010481;28;20247;-79
2021/12/17 03:32:45;;;;;;;18.48;13.50;;;5.80;96.90;;;;;;4984626;28;20636;-79
2021/12/17 03:35:20;;;;;;;19.67;15.02;;;5.70;96.50;;;;;;4980788;28;20216;-78
2021/12/17 03:41:10;;;;;;;23.17;14.35;;;5.70;96.70;;;;;;4988138;28;20215;-79
2021/12/17 03:43:40;;;;;;;20.40;14.50;;;5.80;96.60;;;;;;5010667;28;20234;-78
2021/12/17 03:46:44;;;;;;;23.58;14.95;;;5.80;96.50;;;;;;5010992;28;20213;-78
2021/12/17 03:49:25;;;;;;;23.52;14.75;;;5.80;96.00;;;;;;5010272;28;20251;-79
2021/12/17 03:55:29;;;;;;;23.20;15.27;;;5.80;96.20;;;;;;4972985;29;20213;-78
2021/12/17 03:58:10;;;;;;;26.13;15.40;;;5.80;96.00;;;;;;4974258;29;20233;-79
2021/12/17 04:03:25;;;;;;;18.65;13.50;;;5.70;95.70;;;;;;4955963;28;20285;-78
2021/12/17 04:05:56;;;;;;;21.33;14.52;;;5.80;96.10;;;;;;4957117;29;20209;-78
2021/12/17 04:08:28;;;;;;;22.52;14.82;;;5.70;96.00;;;;;;4958023;29;20206;-79
2021/12/17 04:11:05;;;;;;;21.15;15.25;;;5.70;96.50;;;;;;4971448;28;20205;-81
2021/12/17 04:13:37;;;;;;;23.42;15.50;;;5.70;97.10;;;;;;4979726;28;20228;-80
2021/12/17 04:16:13;;;;;;;20.95;14.55;;;5.70;97.20;;;;;;4980558;28;20237;-80
2021/12/17 04:18:43;;;;;;;24.65;15.77;;;5.70;97.30;;;;;;4987900;28;20286;-80
2021/12/17 04:21:20;;;;;;;22.27;14.95;;;5.70;97.30;;;;;;4981839;28;20225;-80
2021/12/17 04:27:16;;;;;;;20.83;15.30;;;5.70;97.20;;;;;;4983304;28;20764;-81
2021/12/17 04:29:56;;;;;;;23.55;15.52;;;5.80;97.30;;;;;;4984399;28;20213;-79
2021/12/17 04:32:37;;;;;;;20.90;14.65;;;5.70;97.20;;;;;;4989093;28;20209;-80
2021/12/17 04:35:09;;;;;;;22.77;15.57;;;5.80;97.20;;;;;;4997076;28;20189;-77
2021/12/17 04:37:35;;;;;;;21.08;14.90;;;5.80;97.20;;;;;;4979145;28;20220;-78
2021/12/17 04:40:03;;;;;;;24.42;15.15;;;5.80;97.30;;;;;;4979301;28;20194;-78
2021/12/17 04:42:39;;;;;;;26.20;16.40;;;5.90;97.30;;;;;;4997618;28;20225;-78
2021/12/17 04:45:06;;;;;;;20.52;14.75;;;5.90;97.30;;;;;;4997144;28;20224;-78
2021/12/17 04:58:32;;;;;;;20.50;14.45;;;6.00;96.20;;;;;;4977841;28;20236;-79
2021/12/17 05:01:01;;;;;;;22.23;14.35;;;6.10;95.70;;;;;;4978135;28;20209;-78
2021/12/17 05:03:28;;;;;;;25.33;14.55;;;6.10;95.60;;;;;;4978230;28;20233;-79
2021/12/17 05:06:03;;;;;;;22.23;14.40;;;6.10;95.60;;;;;;4968139;28;20273;-78
2021/12/17 05:08:36;;;;;;;18.63;12.95;;;6.10;95.60;;;;;;4960215;29;20215;-79
2021/12/17 05:19:41;;;;;;;13.35;10.90;;;6.30;94.80;;;;;;5001493;28;20195;-79
2021/12/17 05:22:10;;;;;;;16.90;12.68;;;6.30;94.40;;;;;;5010977;28;20216;-79
2021/12/17 05:24:37;;;;;;;16.90;11.77;;;6.30;94.10;;;;;;5017226;28;20239;-79
2021/12/17 05:27:05;;;;;;;15.90;11.00;;;6.30;94.00;;;;;;5035372;28;20218;-79
2021/12/17 05:32:48;;;;;;;16.42;12.07;;;6.40;93.40;;;;;;5013833;28;20243;-79
2021/12/17 05:35:18;;;;;;;13.63;10.60;;;6.40;93.00;;;;;;5023085;28;20211;-78
2021/12/17 05:37:45;;;;;;;15.57;11.68;;;6.40;92.70;;;;;;5036712;28;20184;-78
2021/12/17 05:40:13;;;;;;;17.30;10.77;;;6.40;92.30;;;;;;5035686;28;20203;-78
2021/12/17 05:42:41;;;;;;;15.73;11.35;;;6.40;92.20;;;;;;5017475;28;20235;-78
2021/12/17 05:45:22;;;;;;;13.77;11.10;;;6.40;92.50;;;;;;5017702;28;20204;-78
2021/12/17 05:51:09;;;;;;;17.75;12.18;;;6.40;92.50;;;;;;4999725;28;20211;-78
2021/12/17 05:56:49;;;;;;;17.05;11.90;;;6.40;92.30;;;;;;4965889;28;20301;-78
2021/12/17 05:59:53;;;;;;;18.85;11.77;;;6.40;92.80;;;;;;4954818;29;20224;-79
2021/12/17 06:02:46;;;;;;;19.27;11.65;;;6.40;92.60;;;;;;4958038;28;20233;-79
2021/12/17 06:08:45;;;;;;;17.60;12.00;;;6.40;93.20;;;;;;4917182;29;20214;-79
2021/12/17 06:11:27;;;;;;;14.73;11.32;;;6.40;92.90;;;;;;4904550;29;20267;-79
2021/12/17 06:17:24;;;;;;;15.65;11.70;;;6.40;92.40;;;;;;4903627;29;20196;-79
2021/12/17 06:19:54;;;;;;;15.15;12.00;;;6.40;92.20;;;;;;4890631;29;20286;-78
2021/12/17 06:22:29;;;;;;;15.80;11.68;;;6.40;92.10;;;;;;4896193;29;20265;-79
2021/12/17 06:28:38;;;;;;;18.55;11.57;;;6.40;91.80;;;;;;4912985;29;20250;-79
2021/12/17 06:34:52;;;;;;;17.63;12.05;;;6.40;91.90;;;;;;4882832;29;20227;-80
2021/12/17 06:37:40;;;;;;;21.38;12.77;;;6.30;92.10;;;;;;4883374;29;20719;-79
2021/12/17 06:40:22;;;;;;;16.77;12.10;;;6.30;92.50;;;;;;4867609;29;20257;-78
2021/12/17 06:42:51;;;;;;;20.08;13.85;;;6.20;93.20;;;;;;4872245;29;20236;-79
2021/12/17 06:48:14;;;;;;;16.92;10.65;;;6.30;93.20;;;;;;4934506;29;20222;-79
2021/12/17 07:38:35;;;;;;;11.40;9.50;;;6.60;82.50;;;;;;4873216;29;20606;-78
2021/12/17 07:40:46;;;;;;;13.60;9.70;;;6.60;82.70;;;;;;4921575;29;20271;-79
2021/12/17 07:43:41;;;;;;;15.02;9.15;;;6.60;82.70;;;;;;4847135;29;20238;-78
2021/12/17 07:46:19;;;;;;;11.23;8.52;;;6.60;82.80;;;;;;4827419;29;20249;-78
2021/12/17 07:52:15;;;;;;;12.15;8.95;;;6.60;82.30;;;;;;4864728;29;20251;-78
2021/12/17 07:54:52;;;;;;;12.07;8.63;;;6.60;81.70;;;;;;4876490;29;20189;-78
2021/12/17 07:57:24;;;;;;;12.80;9.35;;;6.60;81.60;;;;;;4872262;29;20225;-78
2021/12/17 08:03:07;;;;;;;14.98;9.55;;;6.60;80.30;;;;;;4931359;29;20258;-77
2021/12/17 08:11:14;;;;;;;12.00;8.32;;;6.70;77.80;;;;;;5043690;22;20268;-82
2021/12/17 08:13:43;;;;;;;9.23;8.23;;;6.80;77.90;;;;;;5055416;28;20195;-84
2021/12/17 08:16:27;;;;;;;12.23;9.50;;;6.80;76.90;;;;;;5050962;28;20206;-80
2021/12/17 08:23:06;;;;;;;15.52;8.82;;;6.80;76.40;;;;;;5047365;28;20271;-79
2021/12/17 08:24:54;;;;;;;12.05;9.07;;;6.80;74.50;;;;;;5007244;28;20220;-80
2021/12/17 08:27:42;;;;;;;9.90;7.35;;;6.90;74.60;;;;;;5035164;28;20212;-82
2021/12/17 08:30:23;;;;;;;11.85;8.23;;;6.90;72.90;;;;;;5036632;28;20219;-81
2021/12/17 08:32:50;;;;;;;10.98;8.05;;;6.90;72.90;;;;;;5013065;28;20204;-81
2021/12/17 08:35:19;;;;;;;8.82;6.90;;;6.90;72.40;;;;;;5019948;28;20208;-79
2021/12/17 08:37:46;;;;;;;10.15;7.95;;;7.00;72.50;;;;;;5018558;28;20293;-80
2021/12/17 08:40:13;;;;;;;8.15;7.32;;;6.90;71.40;;;;;;5005005;28;20225;-79
2021/12/17 08:42:42;;;;;;;11.23;7.75;;;6.90;71.50;;;;;;5013552;28;20252;-79
2021/12/17 08:45:10;;;;;;;12.07;8.07;;;6.90;72.00;;;;;;5022302;28;20217;-78
2021/12/17 08:47:37;;;;;;;10.40;8.05;;;6.90;72.30;;;;;;5010677;28;20208;-83
2021/12/17 08:50:11;;;;;;;11.73;8.43;;;6.90;71.90;;;;;;5021299;28;20247;-80
2021/12/17 08:52:38;;;;;;;9.68;8.30;;;6.90;72.20;;;;;;5021036;28;20267;-81
2021/12/17 08:55:07;;;;;;;11.15;7.82;;;6.90;72.50;;;;;;5024472;28;20235;-80
2021/12/17 08:57:34;;;;;;;12.25;7.43;;;6.90;71.70;;;;;;5022603;28;20400;-79
2021/12/17 09:00:06;;;;;;;9.60;7.90;;;6.90;72.50;;;;;;5019203;28;20244;-80
2021/12/17 09:02:35;;;;;;;9.85;7.32;;;7.00;72.00;;;;;;5005033;28;20573;-79
2021/12/17 09:05:03;;;;;;;13.00;8.02;;;7.00;71.90;;;;;;5020777;28;20227;-81
2021/12/17 09:07:30;;;;;;;12.93;7.72;;;7.00;71.60;;;;;;4998877;28;20583;-79
2021/12/17 09:09:57;;;;;;;11.32;8.27;;;7.00;71.70;;;;;;5008503;28;20633;-81
2021/12/17 09:12:25;;;;;;;10.40;7.40;;;7.10;71.70;;;;;;5020091;28;20204;-80
2021/12/17 09:14:52;;;;;;;11.57;8.18;;;7.10;71.40;;;;;;5013279;28;20239;-80
2021/12/17 09:17:24;;;;;;;9.10;6.90;;;7.10;70.40;;;;;;4998280;28;20204;-80
2021/12/17 09:19:52;;;;;;;12.32;7.00;;;7.10;69.90;;;;;;5010573;28;20224;-81
2021/12/17 09:22:19;;;;;;;10.15;7.63;;;7.10;70.00;;;;;;4999573;28;20276;-79
2021/12/17 09:24:46;;;;;;;9.88;7.78;;;7.20;69.70;;;;;;5015757;28;20265;-82
2021/12/17 09:27:13;;;;;;;11.63;8.13;;;7.20;69.50;;;;;;5016227;28;20199;-80
2021/12/17 09:29:40;;;;;;;9.15;7.25;;;7.30;70.00;;;;;;5000830;28;20746;-81
2021/12/17 09:32:08;;;;;;;10.98;8.35;;;7.30;69.00;;;;;;5002069;28;20200;-83
2021/12/17 09:34:38;;;;;;;9.75;6.90;;;7.30;69.10;;;;;;5002973;28;20232;-79
2021/12/17 09:37:08;;;;;;;10.52;7.65;;;7.30;68.80;;;;;;5026928;28;20219;-80
2021/12/17 09:39:35;;;;;;;9.57;7.65;;;7.30;68.80;;;;;;5033834;28;20223;-78
2021/12/17 09:42:02;;;;;;;12.70;7.63;;;7.30;67.90;;;;;;5030086;28;20211;-79
2021/12/17 09:44:29;;;;;;;8.40;7.25;;;7.30;67.60;;;;;;5020955;28;20663;-78
2021/12/17 09:46:59;;;;;;;9.05;7.30;;;7.40;67.10;;;;;;5018269;28;20208;-78
2021/12/17 09:49:26;;;;;;;9.70;7.22;;;7.40;67.20;;;;;;5020296;28;20640;-79
2021/12/17 09:51:59;;;;;;;10.73;6.75;;;7.40;66.30;;;;;;5023528;28;20223;-81
2021/12/17 09:54:26;;;;;;;8.80;6.47;;;7.40;66.40;;;;;;5013613;28;20504;-81
2021/12/17 09:56:53;;;;;;;9.27;6.90;;;7.50;66.40;;;;;;5009412;28;20236;-79
2021/12/17 09:59:21;;;;;;;8.07;7.00;;;7.50;66.40;;;;;;5004598;28;20243;-80
2021/12/17 10:01:48;;;;;;;9.05;6.70;;;7.50;66.40;;;;;;5003557;28;20208;-79
2021/12/17 10:04:17;;;;;;;8.50;6.95;;;7.50;66.50;;;;;;5005139;28;20239;-79
2021/12/17 10:06:45;;;;;;;9.77;7.30;;;7.50;66.00;;;;;;5010153;28;20656;-79
2021/12/17 10:09:15;;;;;;;8.30;6.53;;;7.60;65.70;;;;;;4997939;28;20215;-79
2021/12/17 10:12:03;;;;;;;9.35;7.10;;;7.60;65.20;;;;;;5009585;28;20200;-80
2021/12/17 10:14:30;;;;;;;8.90;6.30;;;7.60;65.40;;;;;;5011707;28;20201;-78
2021/12/17 10:17:07;;;;;;;8.70;7.05;;;7.60;65.10;;;;;;5014960;28;20262;-79
2021/12/17 10:19:49;;;;;;;7.93;6.10;;;7.60;64.80;;;;;;5010508;28;20228;-79
2021/12/17 10:22:19;;;;;;;7.65;6.22;;;7.60;64.30;;;;;;5014584;28;20213;-80
2021/12/17 10:24:59;;;;;;;7.25;5.40;;;7.70;64.20;;;;;;5026613;28;20291;-80
2021/12/17 10:27:29;;;;;;;9.20;6.13;;;7.70;63.30;;;;;;5019308;28;20191;-78
2021/12/17 10:29:57;;;;;;;7.55;6.53;;;7.70;63.50;;;;;;5015594;28;20286;-79
2021/12/17 10:32:27;;;;;;;8.02;5.93;;;7.70;63.60;;;;;;5012606;28;20239;-79
2021/12/17 10:35:06;;;;;;;8.40;6.90;;;7.70;64.10;;;;;;5007219;28;20215;-80
2021/12/17 10:37:40;;;;;;;8.88;6.57;;;7.80;63.90;;;;;;5008480;28;20236;-79
2021/12/17 10:40:22;;;;;;;8.35;6.35;;;7.90;63.70;;;;;;5012945;28;20322;-79
2021/12/17 10:43:03;;;;;;;8.00;6.97;;;7.80;63.50;;;;;;5002722;28;20212;-79
2021/12/17 10:45:35;;;;;;;7.18;6.38;;;7.90;63.30;;;;;;5000548;28;20208;-81
2021/12/17 10:48:22;;;;;;;13.40;6.57;;;8.00;63.30;;;;;;5021423;28;20264;-79
2021/12/17 10:50:53;;;;;;;8.23;6.60;;;8.00;63.10;;;;;;5020972;28;20238;-79
2021/12/17 10:53:23;;;;;;;7.32;5.63;;;8.00;62.70;;;;;;5022593;28;20269;-79
2021/12/17 10:55:52;;;;;;;7.40;6.60;;;8.10;63.10;;;;;;5025409;28;20669;-81
2021/12/17 10:58:19;;;;;;;7.82;6.38;;;8.20;62.60;;;;;;5021089;28;20214;-81
2021/12/17 11:00:51;;;;;;;8.00;6.70;;;8.20;62.60;;;;;;5026872;28;20224;-79
2021/12/17 11:03:18;;;;;;;7.68;6.18;;;8.20;62.30;;;;;;5029070;28;20280;-80
2021/12/17 11:05:45;;;;;;;11.20;6.65;;;8.20;61.60;;;;;;5030003;28;20219;-80
2021/12/17 11:08:30;;;;;;;6.85;6.13;;;8.20;61.90;;;;;;5057631;28;20226;-81
2021/12/17 11:11:08;;;;;;;7.22;5.55;;;8.30;61.80;;;;;;5054864;28;20283;-84
2021/12/17 11:13:35;;;;;;;8.20;5.50;;;8.30;61.60;;;;;;5057730;28;20211;-80
2021/12/17 11:16:07;;;;;;;8.27;5.97;;;8.20;61.90;;;;;;5042739;28;20550;-80
2021/12/17 11:18:34;;;;;;;7.55;5.95;;;8.30;61.60;;;;;;5045376;28;20199;-82
2021/12/17 11:21:01;;;;;;;7.97;6.03;;;8.30;61.60;;;;;;5052839;28;20227;-80
2021/12/17 11:23:32;;;;;;;7.43;4.85;;;8.30;61.00;;;;;;5031168;28;20204;-81
2021/12/17 11:26:01;;;;;;;9.52;6.07;;;8.30;61.10;;;;;;5024504;28;20212;-79
2021/12/17 11:28:29;;;;;;;5.88;5.28;;;8.40;60.80;;;;;;5027912;28;20358;-82
2021/12/17 11:30:57;;;;;;;6.32;5.45;;;8.40;61.40;;;;;;5027806;28;20285;-80
2021/12/17 11:33:24;;;;;;;7.78;5.63;;;8.50;60.50;;;;;;5026291;28;20280;-79
2021/12/17 11:35:51;;;;;;;8.00;6.30;;;8.60;60.70;;;;;;5031819;28;20206;-80
2021/12/17 11:38:27;;;;;;;6.65;5.57;;;8.60;60.80;;;;;;5037286;28;20695;-80
2021/12/17 11:41:04;;;;;;;8.43;6.03;;;8.70;60.70;;;;;;5024279;28;20773;-81
2021/12/17 11:43:57;;;;;;;7.03;5.38;;;8.80;60.50;;;;;;5011338;28;20306;-81
2021/12/17 11:46:26;;;;;;;6.18;5.57;;;8.80;59.80;;;;;;5026064;28;20243;-78
2021/12/17 11:48:57;;;;;;;7.80;5.95;;;8.80;60.10;;;;;;5020349;28;20293;-80
2021/12/17 11:51:27;;;;;;;7.30;5.25;;;8.70;60.00;;;;;;5004416;28;20212;-79
2021/12/17 11:54:06;;;;;;;8.40;6.97;;;8.70;59.80;;;;;;5002675;28;20197;-81
2021/12/17 11:56:46;;;;;;;6.75;5.55;;;8.80;59.60;;;;;;5036634;28;20269;-78
2021/12/17 11:59:39;;;;;;;5.53;4.95;;;8.90;60.00;;;;;;5023976;28;20219;-78
2021/12/17 12:02:15;;;;;;;6.53;5.75;;;9.10;58.90;;;;;;5014757;28;20200;-80
2021/12/17 12:04:54;;;;;;;10.15;7.38;;;9.30;59.10;;;;;;5034169;28;20203;-80
2021/12/17 12:07:33;;;;;;;9.27;6.40;;;9.20;59.00;;;;;;5030197;28;20267;-80
2021/12/17 12:10:08;;;;;;;6.88;5.82;;;9.40;59.20;;;;;;5023526;28;20235;-78
2021/12/17 12:12:55;;;;;;;7.47;5.80;;;9.10;58.90;;;;;;5023120;28;20219;-78
2021/12/17 12:15:38;;;;;;;7.05;6.10;;;9.30;59.10;;;;;;5017850;28;20558;-78
2021/12/17 12:18:16;;;;;;;6.85;5.85;;;9.30;59.10;;;;;;5014212;28;20212;-80
2021/12/17 12:21:11;;;;;;;11.15;6.95;;;9.20;59.00;;;;;;5017586;28;20228;-77
2021/12/17 12:23:54;;;;;;;8.85;6.90;;;9.20;59.00;;;;;;4976823;28;20219;-79
2021/12/17 12:26:27;;;;;;;8.65;6.88;;;9.20;59.00;;;;;;5002895;28;20510;-79
2021/12/17 12:28:59;;;;;;;8.48;6.50;;;9.30;59.10;;;;;;5000828;28;20235;-81
2021/12/17 12:31:59;;;;;;;13.38;6.45;;;9.30;59.10;;;;;;5011003;28;20248;-78
2021/12/17 12:34:33;;;;;;;8.05;6.85;;;9.40;59.20;;;;;;5023213;28;20204;-80
2021/12/17 12:37:03;;;;;;;7.88;6.20;;;9.40;59.20;;;;;;5028161;28;20184;-81
2021/12/17 12:39:34;;;;;;;6.88;6.10;;;9.40;59.20;;;;;;5036622;28;20239;-78
2021/12/17 12:42:06;;;;;;;8.45;6.10;;;9.20;59.00;;;;;;5036499;28;20200;-77
2021/12/17 12:45:09;;;;;;;7.20;6.05;;;9.20;59.00;;;;;;5015451;28;20216;-82
2021/12/17 12:47:51;;;;;;;9.43;5.80;;;9.10;58.90;;;;;;5018469;28;20652;-79
2021/12/17 12:50:22;;;;;;;7.00;5.72;;;9.10;58.90;;;;;;4999848;28;20232;-78
2021/12/17 12:52:53;;;;;;;6.13;5.45;;;9.00;59.10;;;;;;5007918;28;20216;-80
2021/12/17 12:55:23;;;;;;;6.70;6.00;;;8.90;59.40;;;;;;5029884;28;20617;-80
2021/12/17 12:57:53;;;;;;;9.25;7.10;;;9.10;59.00;;;;;;5015577;28;20205;-80
2021/12/17 13:00:23;;;;;;;8.60;6.22;;;9.00;59.70;;;;;;5010145;28;20311;-79
2021/12/17 13:02:54;;;;;;;9.75;6.15;;;9.00;60.10;;;;;;5000469;28;20215;-79
2021/12/17 13:05:21;;;;;;;7.57;5.78;;;8.80;60.00;;;;;;5013639;28;20228;-78
2021/12/17 13:07:50;;;;;;;7.28;5.65;;;8.80;60.30;;;;;;5023772;28;20291;-80
2021/12/17 13:10:20;;;;;;;7.15;6.00;;;8.80;60.30;;;;;;5035083;28;20346;-78
2021/12/17 13:12:58;;;;;;;8.60;6.38;;;8.90;60.30;;;;;;5038702;28;20621;-79
2021/12/17 13:15:40;;;;;;;10.30;6.47;;;9.00;59.50;;;;;;5009962;28;20193;-79
2021/12/17 13:23:48;;;;;;;8.88;7.38;;;9.00;59.60;;;;;;4985608;28;20282;-79
2021/12/17 13:26:16;;;;;;;8.60;7.25;;;9.00;60.30;;;;;;5012983;28;20228;-79
2021/12/17 13:28:48;;;;;;;8.15;6.50;;;8.90;60.30;;;;;;5015414;28;20218;-79
2021/12/17 13:31:30;;;;;;;8.40;7.25;;;9.00;59.50;;;;;;5016533;28;20228;-79
2021/12/17 13:33:58;;;;;;;11.32;6.60;;;9.00;59.70;;;;;;5016312;28;20216;-80
2021/12/17 13:36:25;;;;;;;7.38;6.45;;;9.00;59.80;;;;;;5008761;28;20262;-78
2021/12/17 13:38:57;;;;;;;10.68;6.95;;;9.10;59.60;;;;;;5007606;28;20212;-79
2021/12/17 13:41:38;;;;;;;10.35;7.20;;;9.00;59.40;;;;;;5002246;28;20286;-81
2021/12/17 13:44:05;;;;;;;10.82;7.80;;;8.90;60.00;;;;;;5001425;28;20215;-78
2021/12/17 13:46:36;;;;;;;10.25;7.63;;;8.90;60.10;;;;;;5005601;28;20220;-80
2021/12/17 13:49:04;;;;;;;9.43;6.97;;;8.80;60.00;;;;;;5011007;28;20215;-77
2021/12/17 13:51:32;;;;;;;8.73;7.03;;;8.70;59.80;;;;;;5002171;28;20228;-82
2021/12/17 13:53:59;;;;;;;9.13;7.00;;;8.70;60.20;;;;;;5003470;28;20275;-77
2021/12/17 13:56:27;;;;;;;11.88;8.20;;;8.80;60.00;;;;;;5011218;28;20231;-79
2021/12/17 13:59:01;;;;;;;9.93;8.40;;;8.80;60.20;;;;;;5014633;28;20629;-80
2021/12/17 14:01:29;;;;;;;11.30;9.23;;;8.80;60.90;;;;;;5002290;28;20234;-79
2021/12/17 14:03:56;;;;;;;10.15;9.05;;;8.70;61.50;;;;;;5012683;28;20357;-78
2021/12/17 14:06:35;;;;;;;11.05;8.90;;;8.70;61.80;;;;;;5033026;28;20632;-82
2021/12/17 14:09:03;;;;;;;11.77;9.60;;;8.60;62.30;;;;;;5034979;28;20203;-80
2021/12/17 14:11:33;;;;;;;10.57;8.60;;;8.60;62.20;;;;;;5030111;28;20235;-82
2021/12/17 14:14:01;;;;;;;10.38;8.13;;;8.60;62.50;;;;;;5009833;28;20234;-82
2021/12/17 14:16:30;;;;;;;10.68;8.43;;;8.50;62.80;;;;;;5012940;28;20208;-79
2021/12/17 14:19:02;;;;;;;12.60;9.45;;;8.30;62.70;;;;;;5026324;28;20232;-79
2021/12/17 14:21:33;;;;;;;11.80;8.23;;;8.20;63.50;;;;;;5023404;28;20259;-78
2021/12/17 14:24:00;;;;;;;10.00;8.50;;;8.10;63.60;;;;;;5011065;28;20688;-76
2021/12/17 14:26:29;;;;;;;11.05;8.32;;;8.10;63.80;;;;;;5006971;28;20259;-78
2021/12/17 14:28:56;;;;;;;12.98;8.15;;;8.00;63.70;;;;;;5009037;28;20308;-79
2021/12/17 14:31:28;;;;;;;10.50;8.35;;;8.00;64.10;;;;;;5008067;28;20236;-79
2021/12/17 14:33:57;;;;;;;10.60;7.88;;;8.00;64.20;;;;;;5023232;28;20200;-76
2021/12/17 14:36:29;;;;;;;11.02;8.13;;;8.00;64.30;;;;;;5022655;28;20664;-79
2021/12/17 14:39:06;;;;;;;13.00;9.02;;;8.10;64.50;;;;;;5024617;28;20212;-78
2021/12/17 14:41:40;;;;;;;11.32;9.00;;;8.10;64.10;;;;;;5031988;28;20223;-78
2021/12/17 14:44:20;;;;;;;17.52;8.45;;;8.10;64.10;;;;;;5024915;28;20697;-84
2021/12/17 14:46:52;;;;;;;11.85;7.95;;;8.10;63.60;;;;;;5021258;28;20220;-80
2021/12/17 15:00:52;;;;;;;7.63;6.80;;;8.00;63.90;;;;;;5019323;28;20216;-81
2021/12/17 15:03:28;;;;;;;7.85;6.97;;;7.90;63.80;;;;;;5018915;28;20188;-80
2021/12/17 15:05:57;;;;;;;10.40;8.18;;;7.90;63.80;;;;;;5019517;28;20352;-80
2021/12/17 15:08:25;;;;;;;8.73;6.88;;;7.90;64.00;;;;;;5019539;28;20212;-80
2021/12/17 15:10:54;;;;;;;8.60;7.00;;;7.90;63.70;;;;;;5019875;28;20212;-80
2021/12/17 15:13:21;;;;;;;8.82;6.47;;;7.90;63.70;;;;;;5018486;28;20207;-80
2021/12/17 15:15:48;;;;;;;8.93;7.10;;;7.90;63.80;;;;;;5018477;28;20192;-81
2021/12/17 15:18:19;;;;;;;9.13;7.10;;;7.90;63.80;;;;;;5011531;28;20222;-79
2021/12/17 15:20:49;;;;;;;8.27;7.30;;;7.90;63.80;;;;;;5004829;28;20232;-80
2021/12/17 15:23:17;;;;;;;10.40;7.80;;;7.90;64.10;;;;;;5020428;28;20207;-81
2021/12/17 15:25:44;;;;;;;10.02;7.95;;;7.90;64.30;;;;;;5023118;28;20599;-79
2021/12/17 15:28:17;;;;;;;10.75;7.50;;;7.90;64.30;;;;;;5025413;28;20258;-79
2021/12/17 15:30:46;;;;;;;10.10;7.80;;;7.90;64.40;;;;;;5021309;28;20270;-80
2021/12/17 15:33:14;;;;;;;9.38;7.50;;;7.90;64.50;;;;;;5020964;28;20226;-79
2021/12/17 15:35:42;;;;;;;7.50;6.80;;;7.80;64.80;;;;;;5018326;28;20204;-78
2021/12/17 15:38:10;;;;;;;7.90;6.85;;;7.90;65.10;;;;;;5018935;28;20226;-79
2021/12/17 15:40:38;;;;;;;9.98;6.97;;;7.90;64.90;;;;;;5018757;28;20300;-79
2021/12/17 15:43:05;;;;;;;7.35;6.53;;;7.80;65.30;;;;;;5019063;28;20222;-79
2021/12/17 15:45:37;;;;;;;11.65;7.50;;;7.80;65.70;;;;;;5018620;28;20290;-78
2021/12/17 15:48:04;;;;;;;8.57;6.82;;;7.80;66.40;;;;;;5017414;28;20288;-79
2021/12/17 15:50:31;;;;;;;10.50;8.55;;;7.80;66.70;;;;;;5009825;28;20239;-78
2021/12/17 15:52:58;;;;;;;8.15;6.80;;;7.80;66.70;;;;;;5018836;28;20219;-81
2021/12/17 15:55:27;;;;;;;9.55;7.78;;;7.80;66.70;;;;;;5013604;28;20267;-79
2021/12/17 15:57:54;;;;;;;8.68;7.18;;;7.80;66.70;;;;;;5020155;28;20204;-81
2021/12/17 16:00:24;;;;;;;9.15;7.60;;;7.80;66.70;;;;;;5026711;28;20228;-81
2021/12/17 16:02:53;;;;;;;9.98;8.25;;;7.80;66.70;;;;;;5014653;28;20272;-81
2021/12/17 16:05:23;;;;;;;10.02;8.32;;;7.80;66.70;;;;;;5005428;28;20219;-80
2021/12/17 16:07:52;;;;;;;8.05;6.90;;;7.80;66.70;;;;;;5012991;28;20204;-81
2021/12/17 16:18:46;;;;;;;12.25;8.40;;;7.80;66.70;;;;;;5024226;28;20226;-82
2021/12/17 16:21:13;;;;;;;9.70;8.02;;;7.80;66.70;;;;;;5006469;28;20232;-81
2021/12/17 16:23:42;;;;;;;10.40;7.63;;;7.80;66.70;;;;;;5005394;28;20255;-82
2021/12/17 16:26:10;;;;;;;9.40;7.53;;;7.80;67.10;;;;;;5007949;28;20722;-82
2021/12/17 16:28:40;;;;;;;10.35;8.05;;;7.70;67.70;;;;;;5014849;28;20211;-82
2021/12/17 16:31:10;;;;;;;11.30;8.15;;;7.70;68.10;;;;;;5008212;28;20228;-81
2021/12/17 16:33:39;;;;;;;9.25;7.40;;;7.70;67.50;;;;;;5014027;28;20204;-82
2021/12/17 16:36:08;;;;;;;10.45;7.85;;;7.70;67.80;;;;;;5006717;28;20247;-81
2021/12/17 16:38:36;;;;;;;10.75;7.80;;;7.70;68.20;;;;;;5007323;28;20219;-81
2021/12/17 16:41:05;;;;;;;10.45;8.40;;;7.70;68.30;;;;;;5015289;28;20304;-80
2021/12/17 16:43:38;;;;;;;8.70;7.63;;;7.80;68.50;;;;;;5018464;28;20212;-79
2021/12/17 16:46:22;;;;;;;9.05;7.97;;;7.70;68.30;;;;;;5017282;28;20406;-79
2021/12/17 16:48:52;;;;;;;10.88;8.50;;;7.70;68.30;;;;;;5025969;28;20207;-80
2021/12/17 16:51:20;;;;;;;10.90;8.50;;;7.70;68.50;;;;;;5026587;28;20243;-80
2021/12/17 16:53:48;;;;;;;10.70;7.95;;;7.70;68.10;;;;;;5024926;28;20280;-81
2021/12/17 16:56:16;;;;;;;12.57;8.07;;;7.70;68.10;;;;;;5011045;28;20212;-83
2021/12/17 16:58:43;;;;;;;15.27;9.32;;;7.60;68.50;;;;;;5011456;28;20215;-82
2021/12/17 17:01:09;;;;;;;11.23;8.73;;;7.60;69.10;;;;;;5015416;28;20213;-82
2021/12/17 17:03:36;;;;;;;10.23;8.30;;;7.60;69.80;;;;;;5027320;28;20215;-81
2021/12/17 17:06:05;;;;;;;12.90;9.30;;;7.60;69.30;;;;;;5017623;28;20204;-81
2021/12/17 17:08:32;;;;;;;11.02;9.48;;;7.60;69.80;;;;;;5028417;28;20243;-80
2021/12/17 17:11:01;;;;;;;11.90;9.35;;;7.60;69.90;;;;;;5016483;28;20295;-80
2021/12/17 17:13:28;;;;;;;11.80;9.75;;;7.60;69.70;;;;;;5013682;28;20192;-80
2021/12/17 17:15:56;;;;;;;9.25;7.90;;;7.60;69.60;;;;;;5014735;28;20232;-80
2021/12/17 17:18:23;;;;;;;11.50;9.13;;;7.50;69.60;;;;;;5013589;28;20199;-79
2021/12/17 17:20:51;;;;;;;10.48;8.77;;;7.50;69.50;;;;;;5006948;28;20225;-79